Cook, James
United StatesManBorn 19652004 – 2024Runner id 46895
Events
62
52 race dates
Best pace
9.950
km/h · 2010
Best finish
1st
of 32 · 2008
Distance raced
10,738
km · splits not double-counted
Pace over time
km/h · higher is faster
Pace over time: 54 races and 8 splits from 2004 to 2024, ranging from 2.68 to 10.72 kilometres per hour, where higher is faster. A second, age-graded series is drawn above it; the gap between the two is the age credit.
- Actual pace
- Age-graded pace
- Split of a race already plotted
Results
| Date | Event | Distance | Result | Pace km/h | Placing |
|---|---|---|---|---|---|
| 2004-11-20 | 50mi | 9:23:36 h | 8.566 | 206/876 | |
| 2005-11-19 | 50mi | 8:35:08 h | 9.372 | 100/951 | |
| 2006-11-18 | 50mi | 8:05:43 h | 9.940 | 77/1016 | |
| 2007-02-03 | 100mi | 22:18:00 h | 7.217 | 31/168 | |
| 2007-05-25 | 100mi | 20:46:58 h | 7.744 | 6/30 | |
| 2007-11-17 | 50mi | 8:06:59 h | 9.914 | 91/1078 | |
| 2008-05-24 | 100mi | 18:43:43 h | 8.593 | 1/32 | |
| 2008-11-22 | 50mi | 8:09:03 h | 9.872 | 56/927 | |
| 2009-07-18 | Lone Ranger 24 hr Ultra-MarathonUnited States | 24h | 122.477 km | 5.103 | 38/152 |
| 2009-11-21 | 50mi | 8:16:08 h | 9.731 | 104/1016 | |
| 2010-05-06 | 150mi | 2d 03:19:00 h | 4.704 | 1/2 | |
| 2010-07-17 | 24h | 81.651 km | 3.402 | 112/158 | |
| 2010-10-16 | 50mi | 8:05:13 h | 9.950 | 25/93 | |
| 2010-11-20 | 50mi | 10:07:13 h | 7.951 | 25/116 | |
| 2011-09-04 | 12h | 88.513 km | 7.376 | 8/136 | |
| 2011-11-19 | 50mi | 8:48:44 h | 9.131 | 179/864 | |
| 2012-02-11 | 50km | 6:03:12 h | 8.260 | 91/128 | |
| 2012-05-03 | 72h | 193.121 km | 2.682 | 6/85 | |
| 2012-11-17 | 50mi | 8:26:14 h | 9.537 | 133/967 | |
| 2013-03-23 | New Jersey Ultra Festival 100 Mile RaceUnited States | 100mi | 20:25:25 h | 7.880 | 6/41 |
| 2013-05-16 | 72h | 349.227 km | 4.850 | 5/43 | |
| 2013-05-16 | 3 Days at the Fair 72 Hour Race - 48h SplitUnited StatesIAU BronzeSplit of a longer race in this career; not counted again in the distance total*PA | 48h | 257.495 km | 5.364 | 6/43 |
| 2013-05-16 | 3 Days at the Fair 72 Hour Race - 24h SplitUnited StatesIAU BronzeSplit of a longer race in this career; not counted again in the distance total*PA | 24h | 138.403 km | 5.767 | 6/40 |
| 2013-11-23 | 50mi | 8:35:46 h | 9.361 | 136/858 | |
| 2014-03-22 | New Jersey Ultra Festival 100 Mile RaceUnited States | 100mi | 21:53:41 h | 7.350 | 5/23 |
| 2014-05-15 | 72h | 358.883 km | 4.984 | 5/62 | |
| 2014-05-15 | 3 Days at the Fair 72 Hour Race - 48h SplitUnited StatesIAU BronzeSplit of a longer race in this career; not counted again in the distance total*Nicholson, PA | 48h | 259.104 km | 5.398 | 4/61 |
| 2014-11-22 | 50mi | 8:20:22 h | 9.649 | 110/808 | |
| 2015-03-21 | New Jersey Ultra Festival 100 Mile RaceUnited States | 100mi | 22:00:00 h | 7.315 | 3/9 |
| 2015-05-14 | 3 Days at the Fair 72 Hour RaceUnited States | 72h | 354.055 km | 4.917 | 6/68 |
| 2015-05-14 | 3 Days at the Fair 72 Hour Race - 48h SplitUnited StatesSplit of a longer race in this career; not counted again in the distance total | 48h | 259.104 km | 5.398 | 4/63 |
| 2015-05-14 | 3 Days at the Fair 72 Hour Race - 24h SplitUnited StatesSplit of a longer race in this career; not counted again in the distance total | 24h | 152.887 km | 6.370 | 7/63 |
| 2015-11-07 | 6h | 54.717 km | 9.120 | 6/10 | |
| 2015-11-21 | 50mi | 9:14:25 h | 8.708 | 196/826 | |
| 2016-05-12 | 72h | 300.947 km | 4.180 | 20/73 | |
| 2016-05-12 | 3 Days at the Fair 72 Hour Race - 48h SplitUnited StatesIAU BronzeSplit of a longer race in this career; not counted again in the distance total | 48h | 217.261 km | 4.526 | 14/71 |
| 2016-05-12 | 3 Days at the Fair 72 Hour Race - 24h SplitUnited StatesIAU BronzeSplit of a longer race in this career; not counted again in the distance total | 24h | 127.138 km | 5.297 | 15/70 |
| 2016-11-19 | 50mi | 8:39:53 h | 9.287 | 120/753 | |
| 2017-05-15 | 6d | 513.380 km | 3.565 | 8/41 | |
| 2017-07-22 | Montour 24 Endurance Runs - 6hrs runUnited States | 6h | 53.108 km | 8.851 | 5/8 |
| 2017-11-18 | 50mi | 8:48:02 h | 9.143 | 122/750 | |
| 2018-04-14 | 100km | 15:47:10 h | 6.335 | 4/8 | |
| 2018-05-14 | 6d | 527.864 km | 3.666 | 7/39 | |
| 2018-07-28 | 100mi | 25:31:00 h | 6.307 | 5/11 | |
| 2018-11-17 | 50mi | 9:53:01 h | 8.141 | 233/763 | |
| 2019-05-09 | 10d | 869.045 km | 3.621 | 3/20 | |
| 2019-05-09 | 3 Days at the Fair 10 Days Race - 6d SplitUnited StatesSplit of a longer race in this career; not counted again in the distance total*Nicholson, PA | 6d | 529.474 km | 3.677 | 4/20 |
| 2019-07-13 | 100mi | 26:43:00 h | 6.024 | 4/11 | |
| 2019-09-07 | 100mi | 22:48:39 h | 7.055 | 2/9 | |
| 2019-09-07 | 100km | 12:34:42 h | 7.950 | 6/47 |
Showing 1–50 of 62